KSGH/SGH METAR and TAF weather

Enter ICAO airport designator
Station Type Date Time Source
KSGH METAR 2022/12/01 00:56 UTC NOAA

KSGH 010056Z AUTO 27018G26KT 10SM OVC035 M02/M07 A3020 RMK AO2 PK WND 28029/0046 SLP242 T10171067


Station Type Date Time Source
KSGH Decoded METAR 2022/12/01 00:56 UTC NOAA

Springfield, Springfield-Beckley Municipal Airport, OH, United States (KSGH) 39-50-25N 083-50-24W
Nov 30, 2022 - 07:56 PM EST / 2022.12.01 0056 UTC
Wind: from the W (270 degrees) at 21 MPH (18 KT) gusting to 30 MPH (26 KT):0
Visibility: 10 mile(s):0
Sky conditions: overcast
Temperature: 28.9 F (-1.7 C)
Windchill: 15 F (-9 C):1
Dew Point: 19.9 F (-6.7 C)
Relative Humidity: 68%
Pressure (altimeter): 30.2 in. Hg (1022 hPa)
ob: KSGH 010056Z AUTO 27018G26KT 10SM OVC035 M02/M07 A3020 RMK AO2 PK WND 28029/0046 SLP242 T10171067
cycle: 1

Station Type Date Time Source
KSGH TAF UTC NOAA

Error!

Example: see airport list